Weather at Isle of Man Airport

Public forecast

Using degrees Celsius for public forecast. Weather courtesy of forecast.io.

Current aviation weather report (METAR) for Isle of Man Airport

2024/05/22 04:50 (retrieved 10 minutes ago)

EGNS 220450Z 17002KT 9999 -RA FEW004 BKN035 OVC045 13/12 Q1008 NOSIG

Closest aviation forecast (TAF) to Isle of Man Airport

Forecast is more than 6 hours old.

Closest forecast is RAF Waddington, 156.0 nm (288.9 km) ESE.

2024/05/21 18:42 (retrieved 10 hours ago)

TAF EGXW 211658Z 2118/2212 CNL